Flight Track Log - Related Links

Times and Time Zones

All times are in EDT time to prevent confusion due to time zone crossing. See the ASQ6115 flight status page for this flight to view local times or setup timezone preferences in your user account.

Time Position Orientation Groundspeed Altitude Reporting Facility
EDT Latitude Longitude Course Direction KTS MPH feet Rate Location/Type
Sat 06:06:08 PM 35.7392 -84.0872 226° Southwest 190 219 4,700  Level Atlanta Center
Sat 06:07:00 PM 35.5943 -84.2880 229° Southwest  Level FlightAware Approximate
Sat 06:07:08 PM 35.6975 -84.1461 229° Southwest 214 246 6,800  Level Atlanta Center
Sat 06:08:00 PM 35.5214 -84.3868 226° Southwest  Level FlightAware Approximate
Sat 06:08:08 PM 35.6514 -84.2075 227° Southwest 229 264 8,600  Level Atlanta Center
Sat 06:09:00 PM 35.4465 -84.4831 226° Southwest  Level FlightAware Approximate
Sat 06:09:08 PM 35.6011 -84.2789 229° Southwest 257 296 10,300  Level Atlanta Center
Sat 06:10:00 PM 35.3713 -84.5791 226° Southwest  Level FlightAware Approximate
Sat 06:10:08 PM 35.5489 -84.3528 229° Southwest 280 322 11,900  Level Atlanta Center
Sat 06:11:00 PM 35.2960 -84.6749 226° Southwest  Level FlightAware Approximate
Sat 06:11:08 PM 35.4903 -84.4317 228° Southwest 298 343 13,400  Level Atlanta Center
Sat 06:12:08 PM 35.4317 -84.5153 229° Southwest 319 367 14,200 1,000 Climbing Atlanta Center
Sat 06:13:08 PM 35.3644 -84.6017 226° Southwest 337 388 15,400 1,000 Climbing Atlanta Center
Sat 06:14:08 PM 35.2908 -84.7056 229° Southwest 357 411 16,200 800 Climbing Atlanta Center
Sat 06:15:08 PM 35.2194 -84.8039 228° Southwest 371 427 17,000 800 Climbing Atlanta Center
Sat 06:16:08 PM 35.1478 -84.9025 228° Southwest 389 448 17,800 950 Climbing Atlanta Center
Sat 06:17:08 PM 35.0761 -85.0006 228° Southwest 389 448 18,900 1,200 Climbing Atlanta Center
Sat 06:18:08 PM 35.0044 -85.0961 228° Southwest 384 442 20,200 1,450 Climbing Atlanta Center
Sat 06:19:08 PM 34.9389 -85.1892 229° Southwest 384 442 21,800 1,339 Climbing Atlanta Center
Sat 06:20:09 PM 34.8692 -85.2844 228° Southwest 384 442 22,900 1,050 Climbing Atlanta Center
Sat 06:21:08 PM 34.8014 -85.3769 228° Southwest 384 442 23,900 857 Climbing Atlanta Center
Sat 06:22:08 PM 34.7292 -85.4717 227° Southwest 384 442 24,600 800 Climbing Atlanta Center
Sat 06:23:08 PM 34.6572 -85.5717 229° Southwest 384 442 25,500 750 Climbing Atlanta Center
Sat 06:24:08 PM 34.5850 -85.6736 229° Southwest 390 449 26,100 950 Climbing Atlanta Center
Sat 06:25:08 PM 34.5106 -85.7731 228° Southwest 395 455 27,400 1,000 Climbing Atlanta Center
Sat 06:26:08 PM 34.4361 -85.8697 227° Southwest 395 455 28,100 300 Climbing Atlanta Center
Sat 06:27:08 PM 34.3614 -85.9764 230° Southwest 401 461 28,000 -50 Descending Atlanta Center
Sat 06:28:08 PM 34.2803 -86.0850 228° Southwest 420 483 28,000  Level Atlanta Center
Sat 06:29:08 PM 34.2175 -86.2142 240° Southwest 437 503 28,000  Level Atlanta Center
Sat 06:30:08 PM 34.1608 -86.3433 242° Southwest 447 514 28,000  Level Atlanta Center
Sat 06:31:08 PM 34.0997 -86.4797 242° Southwest 447 514 28,000  Level Atlanta Center
Sat 06:32:08 PM 34.0408 -86.6158 242° Southwest 452 520 28,000 -50 Level Atlanta Center
Sat 06:33:08 PM 33.9794 -86.7519 241° Southwest 452 520 27,900  Descending Atlanta Center
Sat 06:34:08 PM 33.9197 -86.8925 243° Southwest 463 533 28,000 100 Climbing Atlanta Center
Sat 06:35:08 PM 33.8669 -87.0133 242° Southwest 463 533 28,100 36 Climbing Atlanta Center
Sat 06:36:56 PM 33.7564 -87.2642 242° Southwest 476 548 28,100 -36 Level Memphis Center
Sat 06:37:56 PM 33.6931 -87.4011 241° Southwest 476 548 28,000 -100 Descending Memphis Center
Sat 06:38:56 PM 33.6317 -87.5456 243° Southwest 471 542 27,900  Descending Memphis Center
Sat 06:39:56 PM 33.5697 -87.6794 241° Southwest 471 542 28,000 50 Climbing Memphis Center
Sat 06:40:56 PM 33.5100 -87.8158 242° Southwest 471 542 28,000 -50 Level Memphis Center
Sat 06:41:56 PM 33.4461 -87.9522 241° Southwest 471 542 27,900 -50 Descending Memphis Center
Sat 06:42:56 PM 33.3839 -88.0933 242° Southwest 471 542 27,900 50 Level Memphis Center
Sat 06:43:56 PM 33.3197 -88.2417 243° Southwest 471 542 28,000 50 Climbing Memphis Center
Sat 06:44:56 PM 33.2572 -88.3797 242° Southwest 471 542 28,000 -50 Level Memphis Center
Sat 06:45:56 PM 33.1925 -88.5128 240° Southwest 471 542 27,900  Descending Memphis Center
Sat 06:46:56 PM 33.1319 -88.6481 242° Southwest 466 536 28,000 50 Climbing Memphis Center
Sat 06:47:56 PM 33.0689 -88.7831 241° Southwest 466 536 28,000  Level Memphis Center
Sat 06:48:56 PM 33.0058 -88.9181 241° Southwest 466 536 28,000  Level Memphis Center
Sat 06:49:56 PM 32.9447 -89.0503 241° Southwest 466 536 28,000  Level Memphis Center
Sat 06:50:56 PM 32.8836 -89.1872 242° Southwest 466 536 28,000  Level Memphis Center
Sat 06:51:56 PM 32.8178 -89.3214 240° Southwest 466 536 28,000 50 Level Memphis Center
Sat 06:52:56 PM 32.7542 -89.4556 241° Southwest 466 536 28,100  Climbing Memphis Center
Sat 06:53:56 PM 32.6903 -89.5922 241° Southwest 466 536 28,000 -100 Descending Memphis Center
Sat 06:54:56 PM 32.6244 -89.7258 240° Southwest 466 536 27,900  Descending Memphis Center
Sat 06:55:56 PM 32.5622 -89.8619 242° Southwest 471 542 28,000 100 Climbing Memphis Center
Sat 06:56:56 PM 32.4981 -89.9978 241° Southwest 471 542 28,100  Climbing Memphis Center
Sat 06:57:56 PM 32.4317 -90.1308 239° Southwest 471 542 28,000 -100 Descending Memphis Center
Sat 06:58:56 PM 32.3672 -90.2639 240° Southwest 471 542 27,900  Descending Memphis Center
Sat 06:59:56 PM 32.3025 -90.3967 240° Southwest 471 542 28,000 50 Climbing Memphis Center
Sat 07:00:56 PM 32.2356 -90.5342 240° Southwest 471 542 28,000 -50 Level Memphis Center
Sat 07:01:56 PM 32.1725 -90.6667 241° Southwest 471 542 27,900  Descending Memphis Center
Sat 07:02:58 PM 32.1117 -90.7958 241° Southwest 468 539 28,000 48 Climbing Houston Center
Sat 07:04:00 PM 32.0467 -90.9281 240° Southwest 468 539 28,000  Level Houston Center
Sat 07:05:01 PM 31.9808 -91.0594 239° Southwest 468 539 28,000  Level Houston Center
Sat 07:06:03 PM 31.9161 -91.1917 240° Southwest 465 535 28,000 49 Level Houston Center
Sat 07:07:04 PM 31.8511 -91.3219 240° Southwest 464 534 28,100  Climbing Houston Center
Sat 07:08:06 PM 31.7747 -91.4783 240° Southwest 462 532 28,000 -48 Descending Houston Center
Sat 07:09:08 PM 31.7097 -91.6067 239° Southwest 459 528 28,000  Level Houston Center
Sat 07:10:09 PM 31.6453 -91.7361 240° Southwest 459 528 28,000  Level Houston Center
Sat 07:11:11 PM 31.5808 -91.8644 240° Southwest 457 526 28,000  Level Houston Center
Sat 07:12:12 PM 31.5164 -91.9922 239° Southwest 457 526 28,000 -49 Level Houston Center
Sat 07:13:14 PM 31.4461 -92.1289 239° Southwest 452 520 27,900  Descending Houston Center
Sat 07:14:15 PM 31.3819 -92.2567 240° Southwest 456 525 28,000  Climbing Houston Center
Sat 07:15:17 PM 31.3161 -92.3819 238° Southwest 455 524 27,900  Descending Houston Center
Sat 07:16:18 PM 31.2519 -92.5081 239° Southwest 454 522 28,000  Climbing Houston Center
Sat 07:17:20 PM 31.2022 -92.6403 246° West 448 516 27,900  Descending Houston Center
Sat 07:18:21 PM 31.1550 -92.7761 248° West 451 519 28,000 49 Climbing Houston Center
Sat 07:19:23 PM 31.1053 -92.9089 246° West 449 517 28,000  Level Houston Center
Sat 07:20:24 PM 31.0436 -93.0675 246° West 449 517 28,000  Level Houston Center
Sat 07:21:26 PM 30.9686 -93.1822 233° Southwest 448 516 28,000 -49 Level Houston Center
Sat 07:22:27 PM 30.8944 -93.2986 233° Southwest 449 517 27,900 -195 Descending Houston Center
Sat 07:23:29 PM 30.8203 -93.4142 233° Southwest 448 516 27,600 -878 Descending Houston Center
Sat 07:24:30 PM 30.7469 -93.5278 233° Southwest 444 511 26,100 -1,610 Descending Houston Center
Sat 07:25:32 PM 30.6747 -93.6417 234° Southwest 443 510 24,300 -1,805 Descending Houston Center
Sat 07:26:33 PM 30.5881 -93.7711 232° Southwest 431 496 22,400 -1,902 Descending Houston Center
Sat 07:27:35 PM 30.5203 -93.8769 233° Southwest 419 482 20,400 -1,951 Descending Houston Center
Sat 07:28:36 PM 30.4522 -93.9794 232° Southwest 407 468 18,400 -1,918 Descending Houston Center
Sat 07:29:37 PM 30.3844 -94.0806 232° Southwest 378 435 16,500 -1,770 Descending Houston Center
Sat 07:30:38 PM 30.3167 -94.1817 232° Southwest 384 442 14,800 -1,759 Descending Houston Center
Sat 07:31:33 PM 30.2622 -94.2664 233° Southwest 367 422 13,100 -1,475 Descending Houston Center
Sat 07:32:40 PM 30.2039 -94.3783 239° Southwest 342 394 11,800 -916 Descending Houston Center
Sat 07:33:44 PM 30.1633 -94.4842 246° West 343 395 11,100 -984 Descending Houston Center
Sat 07:34:42 PM 30.1264 -94.5744 245° Southwest 299 344 9,800 -1,361 Descending Houston Center
Sat 07:35:43 PM 30.0928 -94.6611 246° West 294 338 8,400 -1,525 Descending Houston Center
Sat 07:36:44 PM 30.0656 -94.7492 250° West 286 329 6,700 -1,252 Descending Houston Center
Sat 07:37:38 PM 30.0500 -94.8283 257° West 279 321 6,000 -730 Descending Houston Center
Sat 07:38:39 PM 30.0353 -94.9147 259° West 269 310 5,300 -711 Descending Houston Center
Sat 07:39:53 PM 30.0169 -95.0147 258° West 266 306 4,400 -844 Descending Houston Center
Sat 07:40:47 PM 30.0031 -95.0875 258° West 256 295 3,500 -783 Descending Houston Center
Sat 07:41:48 PM 29.9942 -95.1731 263° West 256 295 2,900 -590 Descending Houston Center

Login

Don't have an account? Register now (free) for customized features, flight alerts, and more!